createdAt,value
2019-04-27T00:04:44.453Z,9.40
2019-04-27T00:07:33.672Z,9.30
2019-04-27T00:18:45.506Z,10.30
2019-04-27T00:21:47.776Z,10.50
2019-04-27T00:24:17.110Z,9.80
2019-04-27T00:26:46.448Z,10.43
2019-04-27T00:29:15.780Z,9.83
2019-04-27T00:31:45.098Z,9.50
2019-04-27T00:34:15.094Z,9.63
2019-04-27T00:37:09.988Z,9.50
2019-04-27T00:39:58.426Z,9.50
2019-04-27T00:42:40.399Z,9.37
2019-04-27T00:45:23.444Z,10.10
2019-04-27T00:47:58.988Z,9.80
2019-04-27T00:51:04.127Z,9.50
2019-04-27T00:53:51.111Z,9.33
2019-04-27T00:56:39.556Z,9.43
2019-04-27T00:59:28.238Z,9.77
2019-04-27T01:02:16.687Z,10.00
2019-04-27T01:04:46.085Z,9.40
2019-04-27T01:07:15.412Z,10.77
2019-04-27T01:12:59.548Z,10.33
2019-04-27T01:18:30.321Z,10.10
2019-04-27T01:20:59.954Z,9.87
2019-04-27T01:23:29.448Z,9.83
2019-04-27T01:26:25.025Z,9.47
2019-04-27T01:29:13.466Z,9.83
2019-04-27T01:31:42.879Z,10.07
2019-04-27T01:34:12.209Z,10.20
2019-04-27T01:36:41.539Z,10.37
2019-04-27T01:41:49.972Z,10.10
2019-04-27T01:44:19.569Z,9.13
2019-04-27T01:46:48.903Z,9.40
2019-04-27T01:49:19.420Z,9.20
2019-04-27T01:52:09.634Z,9.33
2019-04-27T01:54:44.849Z,9.37
2019-04-27T01:59:54.691Z,9.53
2019-04-27T02:02:43.132Z,10.60
2019-04-27T02:05:31.683Z,10.10
2019-04-27T02:10:57.209Z,9.30
2019-04-27T02:13:26.541Z,10.47
2019-04-27T02:15:55.871Z,10.33
2019-04-27T02:18:36.909Z,9.83
2019-04-27T02:21:15.330Z,10.03
2019-04-27T02:23:44.670Z,9.73
2019-04-27T02:26:33.333Z,9.70
2019-04-27T02:34:59.919Z,9.50
2019-04-27T02:37:50.072Z,9.17
2019-04-27T02:41:10.066Z,10.00
2019-04-27T02:44:03.431Z,9.70
2019-04-27T02:46:32.780Z,9.60
2019-04-27T02:49:06.217Z,8.40
2019-04-27T02:51:59.500Z,8.93
2019-04-27T02:54:34.859Z,9.93
2019-04-27T02:57:04.195Z,8.40
2019-04-27T02:59:33.593Z,9.10
2019-04-27T03:04:42.168Z,7.70
2019-04-27T03:07:11.718Z,8.07
2019-04-27T03:10:13.691Z,8.13
2019-04-27T03:15:57.476Z,7.17
2019-04-27T03:18:45.913Z,7.17
2019-04-27T03:21:34.367Z,8.13
2019-04-27T03:24:03.689Z,8.10
2019-04-27T03:29:30.644Z,7.07
2019-04-27T03:32:05.089Z,7.07
2019-04-27T03:34:34.506Z,8.20
2019-04-27T03:37:03.963Z,8.20
2019-04-27T03:39:33.360Z,8.03
2019-04-27T03:42:02.977Z,7.03
2019-04-27T03:44:32.301Z,7.17
2019-04-27T03:47:14.274Z,7.60
2019-04-27T03:52:59.941Z,7.67
2019-04-27T03:55:53.697Z,7.00
2019-04-27T03:59:01.570Z,6.93
2019-04-27T04:01:30.885Z,7.43
2019-04-27T04:04:00.221Z,7.63
2019-04-27T04:07:09.686Z,7.43
2019-04-27T04:13:07.163Z,7.27
2019-04-27T04:15:55.607Z,7.93
2019-04-27T04:21:05.218Z,8.30
2019-04-27T04:23:53.639Z,7.33
2019-04-27T04:26:22.975Z,7.80
2019-04-27T04:28:52.294Z,7.70
2019-04-27T04:31:21.639Z,7.83
2019-04-27T04:33:50.969Z,7.40
2019-04-27T04:36:32.852Z,7.30
2019-04-27T04:39:02.361Z,6.97
2019-04-27T04:41:51.170Z,7.47
2019-04-27T04:44:40.180Z,6.80
2019-04-27T04:47:30.569Z,7.47
2019-04-27T04:50:45.535Z,7.63
2019-04-27T04:53:14.878Z,7.87
2019-04-27T04:55:44.185Z,6.83
2019-04-27T04:58:13.526Z,7.43
2019-04-27T05:00:42.843Z,6.50
2019-04-27T05:03:12.165Z,7.40
2019-04-27T05:05:41.509Z,8.60
2019-04-27T05:08:10.836Z,7.30
2019-04-27T05:10:40.154Z,6.67
2019-04-27T05:13:21.897Z,6.60
2019-04-27T05:15:51.453Z,6.90
2019-04-27T05:18:20.780Z,6.33
2019-04-27T05:21:09.225Z,6.90
2019-04-27T05:23:38.864Z,6.17
2019-04-27T05:26:14.773Z,6.60
2019-04-27T05:28:44.093Z,6.80
2019-04-27T05:31:13.419Z,6.80
2019-04-27T05:33:42.755Z,5.83
2019-04-27T05:36:12.356Z,6.47
2019-04-27T05:38:45.983Z,6.23
2019-04-27T05:41:18.784Z,6.17
2019-04-27T05:47:13.432Z,5.80
2019-04-27T05:52:42.897Z,6.40
2019-04-27T05:55:12.226Z,6.10
2019-04-27T05:57:41.553Z,5.80
2019-04-27T06:03:08.988Z,5.90
2019-04-27T06:05:43.448Z,6.30
2019-04-27T06:08:12.853Z,5.90
2019-04-27T06:10:42.180Z,6.20
2019-04-27T06:13:11.511Z,5.93
2019-04-27T06:15:40.840Z,5.23
2019-04-27T06:18:10.159Z,5.80
2019-04-27T06:20:51.088Z,5.43
2019-04-27T06:23:55.564Z,5.03
2019-04-27T06:29:59.338Z,5.97
2019-04-27T06:32:34.971Z,5.57
2019-04-27T06:38:06.104Z,5.27
2019-04-27T06:40:35.599Z,5.97
2019-04-27T06:46:08.726Z,5.87
2019-04-27T06:48:57.094Z,6.53
2019-04-27T06:51:31.911Z,6.53
2019-04-27T06:54:01.236Z,5.43
2019-04-27T06:56:30.562Z,4.67
2019-04-27T06:58:59.893Z,4.77
2019-04-27T07:01:29.971Z,4.67
2019-04-27T07:04:10.927Z,5.17
2019-04-27T07:07:05.143Z,5.07
2019-04-27T07:09:34.484Z,4.30
2019-04-27T07:12:03.802Z,4.10
2019-04-27T07:14:33.133Z,5.00
2019-04-27T07:17:02.537Z,4.63
2019-04-27T07:19:31.865Z,4.50
2019-04-27T07:22:13.327Z,4.70
2019-04-27T07:24:42.651Z,5.17
2019-04-27T07:27:31.329Z,4.57
2019-04-27T07:30:01.759Z,4.07
2019-04-27T07:32:56.529Z,4.23
2019-04-27T07:35:25.860Z,6.10
2019-04-27T07:37:55.190Z,5.77
2019-04-27T07:40:24.531Z,4.10
2019-04-27T07:46:08.967Z,4.60
2019-04-27T07:48:50.953Z,4.40
2019-04-27T07:51:31.532Z,4.70
2019-04-27T07:54:15.957Z,4.57
2019-04-27T07:56:45.389Z,4.47
2019-04-27T07:59:14.714Z,4.20
2019-04-27T08:01:44.042Z,5.23
2019-04-27T08:04:13.389Z,5.83
2019-04-27T08:06:42.712Z,5.77
2019-04-27T08:09:12.034Z,4.70
2019-04-27T08:11:41.373Z,5.33
2019-04-27T08:14:10.698Z,4.80
2019-04-27T08:16:52.382Z,5.10
2019-04-27T08:19:21.700Z,5.13
2019-04-27T08:22:10.386Z,4.13
2019-04-27T08:24:51.886Z,4.37
2019-04-27T08:27:40.344Z,4.80
2019-04-27T08:33:49.933Z,3.93
2019-04-27T08:36:31.103Z,4.20
2019-04-27T08:39:00.434Z,4.80
2019-04-27T08:41:29.754Z,4.30
2019-04-27T08:43:59.083Z,4.80
2019-04-27T08:46:28.712Z,4.60
2019-04-27T08:49:04.789Z,4.17
2019-04-27T08:51:34.126Z,4.40
2019-04-27T08:54:15.821Z,5.07
2019-04-27T08:56:45.294Z,5.47
2019-04-27T08:59:14.621Z,4.60
2019-04-27T09:01:43.940Z,4.10
2019-04-27T09:04:13.303Z,4.17
2019-04-27T09:07:00.498Z,4.50
2019-04-27T09:10:01.380Z,4.57
2019-04-27T09:12:53.559Z,4.40
2019-04-27T09:16:11.146Z,5.10
2019-04-27T09:18:54.720Z,4.30
2019-04-27T09:21:24.048Z,5.27
2019-04-27T09:23:53.369Z,4.83
2019-04-27T09:26:22.773Z,4.87
2019-04-27T09:29:11.444Z,4.60
2019-04-27T09:31:40.781Z,4.93
2019-04-27T09:34:10.591Z,4.20
2019-04-27T09:36:58.481Z,4.17
2019-04-27T09:39:27.810Z,4.00
2019-04-27T09:41:57.349Z,3.90
2019-04-27T09:44:26.792Z,3.60
2019-04-27T09:46:56.222Z,4.30
2019-04-27T09:49:26.311Z,4.10
2019-04-27T09:52:24.411Z,5.40
2019-04-27T09:54:56.147Z,3.60
2019-04-27T09:57:25.934Z,3.20
2019-04-27T10:03:17.139Z,4.50
2019-04-27T10:05:46.471Z,4.70
2019-04-27T10:08:16.958Z,4.70
2019-04-27T10:10:52.419Z,5.50
2019-04-27T10:13:21.761Z,4.70
2019-04-27T10:15:51.068Z,4.07
2019-04-27T10:18:20.399Z,5.57
2019-04-27T10:20:59.193Z,5.03
2019-04-27T10:23:38.434Z,4.67
2019-04-27T10:26:07.781Z,3.97
2019-04-27T10:28:37.354Z,4.50
2019-04-27T10:31:13.408Z,4.30
2019-04-27T10:33:42.730Z,5.07
2019-04-27T10:36:12.066Z,4.70
2019-04-27T10:38:41.394Z,4.87
2019-04-27T10:41:23.287Z,3.80
2019-04-27T10:43:52.623Z,3.70
2019-04-27T10:46:41.280Z,4.10
2019-04-27T10:49:23.346Z,3.90
2019-04-27T10:51:52.666Z,3.60
2019-04-27T10:54:21.991Z,4.47
2019-04-27T10:56:51.627Z,3.70
2019-04-27T11:03:06.878Z,3.47
2019-04-27T11:05:56.982Z,3.77
2019-04-27T11:08:32.066Z,4.30
2019-04-27T11:11:01.433Z,4.33
2019-04-27T11:13:30.845Z,4.10
2019-04-27T11:16:00.179Z,4.63
2019-04-27T11:18:29.507Z,4.60
2019-04-27T11:20:58.835Z,4.43
2019-04-27T11:23:28.158Z,4.60
2019-04-27T11:25:57.485Z,5.23
2019-04-27T11:28:26.813Z,4.73
2019-04-27T11:30:56.138Z,5.43
2019-04-27T11:33:26.330Z,4.80
2019-04-27T11:36:55.468Z,5.17
2019-04-27T11:42:20.202Z,5.60
2019-04-27T11:44:49.810Z,4.80
2019-04-27T11:47:19.141Z,5.63
2019-04-27T11:53:19.883Z,5.60
2019-04-27T11:56:27.294Z,4.83
2019-04-27T11:59:24.572Z,5.13
2019-04-27T12:01:55.816Z,5.47
2019-04-27T12:04:33.983Z,6.40
2019-04-27T12:07:03.379Z,5.63
2019-04-27T12:09:32.698Z,5.30
2019-04-27T12:12:12.514Z,5.10
2019-04-27T12:14:52.397Z,5.07
2019-04-27T12:17:41.072Z,4.60
2019-04-27T12:20:10.543Z,4.73
2019-04-27T12:22:59.213Z,5.33
2019-04-27T12:25:28.533Z,5.10
2019-04-27T12:31:26.210Z,4.30
2019-04-27T12:33:56.084Z,5.83
2019-04-27T12:36:53.316Z,5.87
2019-04-27T12:39:28.134Z,5.43
2019-04-27T12:42:16.861Z,4.83
2019-04-27T12:44:58.164Z,4.47
2019-04-27T12:47:27.548Z,4.63
2019-04-27T12:50:08.620Z,4.50
2019-04-27T12:52:51.567Z,3.97
2019-04-27T12:55:51.748Z,4.43
2019-04-27T12:58:40.190Z,4.30
2019-04-27T13:01:28.646Z,4.30
2019-04-27T13:03:59.249Z,3.70
2019-04-27T13:06:35.797Z,3.90
2019-04-27T13:09:11.122Z,3.70
2019-04-27T13:11:40.451Z,4.10
2019-04-27T13:14:09.774Z,4.50
2019-04-27T13:16:39.100Z,4.10
2019-04-27T13:19:08.432Z,4.47
2019-04-27T13:21:37.754Z,4.60
2019-04-27T13:24:07.179Z,4.93
2019-04-27T13:26:38.131Z,4.00
2019-04-27T13:29:25.745Z,4.10
2019-04-27T13:31:55.710Z,3.53
2019-04-27T13:34:31.607Z,3.50
2019-04-27T13:40:50.034Z,3.63
2019-04-27T13:43:38.529Z,4.17
2019-04-27T13:46:47.788Z,4.00
2019-04-27T13:49:47.954Z,3.80
2019-04-27T13:54:58.575Z,3.80
2019-04-27T13:57:50.528Z,3.97
2019-04-27T14:00:37.861Z,3.70
2019-04-27T14:03:37.376Z,4.30
2019-04-27T14:06:19.490Z,3.23
2019-04-27T14:08:49.052Z,3.80
2019-04-27T14:11:18.464Z,3.43
2019-04-27T14:14:00.269Z,3.67
2019-04-27T14:16:29.661Z,3.80
2019-04-27T14:19:18.918Z,3.53
2019-04-27T14:22:20.757Z,3.60
2019-04-27T14:25:02.975Z,4.10
2019-04-27T14:30:48.684Z,3.53
2019-04-27T14:33:23.463Z,3.30
2019-04-27T14:35:52.800Z,3.47
2019-04-27T14:38:22.192Z,3.60
2019-04-27T14:40:51.513Z,3.20
2019-04-27T14:43:33.194Z,3.60
2019-04-27T14:46:02.585Z,3.77
2019-04-27T14:48:31.912Z,3.20
2019-04-27T14:51:01.335Z,3.60
2019-04-27T14:53:30.906Z,4.00
2019-04-27T14:56:00.496Z,3.40
2019-04-27T14:58:29.906Z,3.73
2019-04-27T15:00:59.226Z,4.00
2019-04-27T15:03:28.558Z,3.80
2019-04-27T15:05:58.044Z,3.93
2019-04-27T15:08:27.388Z,4.40
2019-04-27T15:10:56.777Z,4.10
2019-04-27T15:13:26.117Z,3.67
2019-04-27T15:15:55.489Z,4.20
2019-04-27T15:21:20.447Z,4.30
2019-04-27T15:23:49.723Z,4.47
2019-04-27T15:26:21.854Z,4.53
2019-04-27T15:28:51.931Z,4.63
2019-04-27T15:31:26.919Z,4.80
2019-04-27T15:34:11.258Z,4.60
2019-04-27T15:36:48.126Z,4.80
2019-04-27T15:39:22.576Z,4.67
2019-04-27T15:41:52.134Z,5.00
2019-04-27T15:44:21.473Z,4.77
2019-04-27T15:46:50.805Z,5.83
2019-04-27T15:49:20.193Z,4.97
2019-04-27T15:51:50.656Z,4.60
2019-04-27T15:54:22.405Z,4.13
2019-04-27T15:56:52.456Z,3.90
2019-04-27T15:59:23.423Z,3.63
2019-04-27T16:01:53.105Z,3.80
2019-04-27T16:04:22.443Z,4.50
2019-04-27T16:06:52.110Z,3.80
2019-04-27T16:09:25.555Z,3.60
2019-04-27T16:11:58.347Z,3.50
2019-04-27T16:14:24.721Z,3.40
2019-04-27T16:16:54.040Z,3.43
2019-04-27T16:19:23.369Z,3.43
2019-04-27T16:21:54.221Z,3.10
2019-04-27T16:24:23.899Z,3.60
2019-04-27T16:26:56.012Z,4.00
2019-04-27T16:29:28.089Z,3.47
2019-04-27T16:31:55.354Z,3.50
2019-04-27T16:34:24.658Z,3.23
2019-04-27T16:36:53.976Z,3.33
2019-04-27T16:39:23.308Z,3.70
2019-04-27T16:41:52.642Z,4.50
2019-04-27T16:44:22.034Z,3.40
2019-04-27T16:46:51.679Z,3.70
2019-04-27T16:49:21.195Z,3.50
2019-04-27T16:51:50.785Z,3.73
2019-04-27T16:54:22.274Z,4.03
2019-04-27T16:56:58.235Z,3.97
2019-04-27T16:59:44.176Z,3.80
2019-04-27T17:01:53.763Z,3.93
2019-04-27T17:04:23.087Z,4.30
2019-04-27T17:06:53.552Z,3.57
2019-04-27T17:09:22.892Z,3.90
2019-04-27T17:11:52.246Z,4.10
2019-04-27T17:14:38.692Z,3.80
2019-04-27T17:17:25.056Z,3.40
2019-04-27T17:19:56.026Z,4.07
2019-04-27T17:22:25.346Z,4.70
2019-04-27T17:24:54.676Z,3.83
2019-04-27T17:27:40.742Z,4.03
2019-04-27T17:30:10.311Z,4.30
2019-04-27T17:32:51.085Z,4.70
2019-04-27T17:35:20.464Z,4.73
2019-04-27T17:37:49.795Z,4.97
2019-04-27T17:40:19.110Z,4.33
2019-04-27T17:42:49.385Z,4.70
2019-04-27T17:45:21.371Z,4.70
2019-04-27T17:47:49.736Z,4.50
2019-04-27T17:50:24.933Z,5.27
2019-04-27T17:52:54.863Z,5.30
2019-04-27T17:55:24.240Z,3.97
2019-04-27T17:57:52.284Z,5.20
2019-04-27T18:00:22.214Z,5.03
2019-04-27T18:02:51.547Z,5.37
2019-04-27T18:05:20.878Z,5.27
2019-04-27T18:07:50.201Z,6.00
2019-04-27T18:10:23.870Z,5.93
2019-04-27T18:12:50.581Z,5.57
2019-04-27T18:15:19.917Z,5.50
2019-04-27T18:17:52.145Z,5.23
2019-04-27T18:20:25.954Z,4.63
2019-04-27T18:23:15.245Z,4.90
2019-04-27T18:25:51.476Z,4.40
2019-04-27T18:28:22.439Z,4.90
2019-04-27T18:30:59.607Z,5.20
2019-04-27T18:33:32.658Z,4.93
2019-04-27T18:36:05.377Z,5.40
2019-04-27T18:38:35.586Z,4.37
2019-04-27T18:41:02.987Z,5.23
2019-04-27T18:43:33.839Z,5.80
2019-04-27T18:46:03.183Z,5.90
2019-04-27T18:48:44.913Z,7.07
2019-04-27T18:51:15.815Z,6.40
2019-04-27T18:53:45.473Z,5.33
2019-04-27T18:56:14.806Z,6.30
2019-04-27T18:58:44.144Z,5.40
2019-04-27T19:01:13.464Z,5.20
2019-04-27T19:03:42.786Z,5.13
2019-04-27T19:06:12.293Z,5.17
2019-04-27T19:08:41.611Z,5.07
2019-04-27T19:11:11.018Z,5.43
2019-04-27T19:13:40.593Z,4.70
2019-04-27T19:16:09.992Z,3.90
2019-04-27T19:18:39.904Z,4.47
2019-04-27T19:21:10.392Z,4.73
2019-04-27T19:23:40.490Z,5.73
2019-04-27T19:26:14.801Z,5.60
2019-04-27T19:28:58.437Z,4.90
2019-04-27T19:31:32.026Z,4.87
2019-04-27T19:34:01.367Z,5.92
2019-04-27T19:36:31.233Z,5.30
2019-04-27T19:39:00.562Z,5.00
2019-04-27T19:41:29.989Z,5.72
2019-04-27T19:43:59.860Z,5.97
2019-04-27T19:46:30.529Z,5.20
2019-04-27T19:49:00.183Z,6.15
2019-04-27T19:51:29.585Z,6.53
2019-04-27T19:53:58.990Z,5.78
2019-04-27T19:56:28.499Z,5.83
2019-04-27T19:58:59.481Z,6.40
2019-04-27T20:01:36.557Z,6.10
2019-04-27T20:04:18.628Z,5.60
2019-04-27T20:06:48.530Z,6.13
2019-04-27T20:09:23.881Z,6.90
2019-04-27T20:11:53.387Z,6.30
2019-04-27T20:14:22.711Z,5.80
2019-04-27T20:16:52.091Z,5.90
2019-04-27T20:19:21.633Z,5.80
2019-04-27T20:21:50.988Z,6.67
2019-04-27T20:24:20.334Z,6.53
2019-04-27T20:26:49.797Z,7.80
2019-04-27T20:29:19.117Z,6.50
2019-04-27T20:31:48.518Z,6.47
2019-04-27T20:34:17.863Z,6.30
2019-04-27T20:36:47.187Z,6.47
2019-04-27T20:39:16.574Z,5.80
2019-04-27T20:41:45.975Z,5.20
2019-04-27T20:44:15.297Z,4.50
2019-04-27T20:46:44.734Z,4.13
2019-04-27T20:49:15.706Z,4.30
2019-04-27T20:51:51.077Z,4.30
2019-04-27T20:54:22.387Z,4.20
2019-04-27T20:56:53.959Z,4.30
2019-04-27T20:59:22.936Z,4.20
2019-04-27T21:01:52.258Z,4.13
2019-04-27T21:04:25.996Z,4.00
2019-04-27T21:06:56.900Z,4.20
2019-04-27T21:09:26.302Z,4.37
2019-04-27T21:11:55.694Z,4.77
2019-04-27T21:14:25.407Z,3.73
2019-04-27T21:16:54.759Z,4.00
2019-04-27T21:19:24.091Z,4.20
2019-04-27T21:21:53.570Z,3.90
2019-04-27T21:24:22.974Z,4.10
2019-04-27T21:26:52.572Z,4.90
2019-04-27T21:29:22.071Z,4.27
2019-04-27T21:31:52.005Z,4.50
2019-04-27T21:34:21.443Z,5.05
2019-04-27T21:36:51.136Z,3.77
2019-04-27T21:39:21.705Z,4.20
2019-04-27T21:41:51.869Z,4.03
2019-04-27T21:44:21.910Z,4.63
2019-04-27T21:46:51.883Z,4.95
2019-04-27T21:49:22.967Z,4.67
2019-04-27T21:52:03.488Z,4.43
2019-04-27T21:54:37.585Z,4.80
2019-04-27T21:57:06.986Z,4.70
2019-04-27T21:59:36.377Z,4.43
2019-04-27T22:02:07.436Z,4.97
2019-04-27T22:04:37.262Z,5.10
2019-04-27T22:07:06.955Z,5.57
2019-04-27T22:09:36.342Z,5.33
2019-04-27T22:12:05.746Z,5.65
2019-04-27T22:14:35.362Z,5.72
2019-04-27T22:17:04.824Z,5.60
2019-04-27T22:19:34.220Z,6.13
2019-04-27T22:22:05.236Z,5.30
2019-04-27T22:24:36.505Z,6.35
2019-04-27T22:27:05.911Z,5.60
2019-04-27T22:29:35.302Z,5.50
2019-04-27T22:32:04.762Z,5.23
2019-04-27T22:34:34.117Z,6.28
2019-04-27T22:37:03.834Z,5.12
2019-04-27T22:39:34.821Z,4.87
2019-04-27T22:42:05.850Z,4.40
2019-04-27T22:44:45.571Z,5.73
2019-04-27T22:47:14.892Z,5.50
2019-04-27T22:49:44.221Z,4.90
2019-04-27T22:52:13.939Z,4.77
2019-04-27T22:54:43.269Z,4.55
2019-04-27T22:57:14.255Z,4.58
2019-04-27T22:59:50.750Z,5.08
2019-04-27T23:02:24.703Z,4.90
2019-04-27T23:04:55.664Z,5.13
2019-04-27T23:07:25.307Z,5.30
2019-04-27T23:09:54.630Z,4.77
2019-04-27T23:12:24.025Z,4.67
2019-04-27T23:14:53.391Z,4.90
2019-04-27T23:17:42.461Z,5.78
2019-04-27T23:20:11.946Z,5.40
2019-04-27T23:22:41.276Z,5.60
2019-04-27T23:25:11.334Z,5.97
2019-04-27T23:27:41.102Z,5.35
2019-04-27T23:30:11.415Z,6.60
2019-04-27T23:32:42.371Z,5.35
2019-04-27T23:35:11.762Z,5.80
2019-04-27T23:37:41.135Z,5.20
2019-04-27T23:40:11.640Z,5.72
2019-04-27T23:42:41.685Z,5.20
2019-04-27T23:45:11.521Z,6.22
2019-04-27T23:47:40.855Z,6.03
2019-04-27T23:50:10.925Z,5.77
2019-04-27T23:53:01.965Z,5.45
2019-04-27T23:55:35.882Z,6.40
2019-04-27T23:58:05.387Z,6.50
